Time;durP1;ratioP1;P1;durP2;ratioP2;P2;SDS_P1;SDS_P2;PMS_P1;PMS_P2;Temp;Humidity;BMP_temperature;BMP_pressure;BME280_temperature;BME280_humidity;BME280_pressure;Samples;Min_cycle;Max_cycle;Signal;HPM_P1;HPM_P2
2023/11/11 00:00:42;;;;;;;2.40;2.30;;;5.90;99.90;;;;;;5059414;28;20241;-71
2023/11/11 00:03:09;;;;;;;2.10;2.00;;;5.80;99.90;;;;;;5059153;28;20210;-71
2023/11/11 00:05:36;;;;;;;2.22;2.13;;;5.80;99.90;;;;;;5040481;28;20195;-71
2023/11/11 00:08:04;;;;;;;2.60;2.50;;;5.80;99.90;;;;;;5060919;28;20210;-71
2023/11/11 00:10:31;;;;;;;2.83;2.63;;;5.70;99.90;;;;;;5059005;28;20774;-71
2023/11/11 00:13:02;;;;;;;2.33;2.22;;;5.70;99.90;;;;;;5056396;28;20195;-72
2023/11/11 00:15:32;;;;;;;2.35;2.25;;;5.60;99.90;;;;;;5059542;28;20198;-71
2023/11/11 00:18:01;;;;;;;2.13;2.03;;;5.60;99.90;;;;;;5059954;28;20222;-72
2023/11/11 00:20:28;;;;;;;2.00;1.90;;;5.70;99.90;;;;;;5058117;28;20199;-72
2023/11/11 00:22:55;;;;;;;2.35;2.25;;;5.60;99.90;;;;;;5058831;28;20214;-72
2023/11/11 00:25:23;;;;;;;2.63;2.42;;;5.60;99.90;;;;;;5041084;28;20220;-72
2023/11/11 00:27:51;;;;;;;2.40;2.30;;;5.60;99.90;;;;;;5042609;28;20825;-72
2023/11/11 00:30:19;;;;;;;2.42;2.33;;;5.60;99.90;;;;;;5059321;28;20206;-72
2023/11/11 00:32:50;;;;;;;2.65;2.45;;;5.60;99.90;;;;;;5061250;28;20238;-72
2023/11/11 00:35:19;;;;;;;2.50;2.40;;;5.60;99.90;;;;;;5061910;28;20187;-72
2023/11/11 00:37:47;;;;;;;2.40;2.30;;;5.60;99.90;;;;;;5059874;28;20672;-71
2023/11/11 00:40:15;;;;;;;2.45;2.35;;;5.60;99.90;;;;;;5057198;28;20264;-72
2023/11/11 00:42:42;;;;;;;2.53;2.33;;;5.60;99.90;;;;;;5062839;28;20289;-72
2023/11/11 00:45:10;;;;;;;2.38;2.20;;;5.60;99.90;;;;;;5061075;28;20210;-72
2023/11/11 00:47:38;;;;;;;2.00;1.90;;;5.60;99.90;;;;;;5060764;28;20291;-72
2023/11/11 00:50:06;;;;;;;2.92;2.72;;;5.60;99.90;;;;;;5061122;28;20259;-70
2023/11/11 00:52:36;;;;;;;2.50;2.40;;;5.60;99.90;;;;;;5059732;28;20651;-72
2023/11/11 00:55:04;;;;;;;2.42;2.28;;;5.60;99.90;;;;;;5044136;28;20214;-72
2023/11/11 00:57:31;;;;;;;2.47;2.38;;;5.60;99.90;;;;;;5063067;28;20309;-71
2023/11/11 00:59:58;;;;;;;2.70;2.60;;;5.60;99.90;;;;;;5061010;28;20198;-71
2023/11/11 01:02:25;;;;;;;2.40;2.30;;;5.50;99.90;;;;;;5062031;28;20287;-72
2023/11/11 01:04:52;;;;;;;2.33;2.22;;;5.50;99.90;;;;;;5042667;28;20202;-72
2023/11/11 01:07:19;;;;;;;2.20;2.10;;;5.50;99.90;;;;;;5062363;28;20272;-72
2023/11/11 01:09:48;;;;;;;2.22;2.13;;;5.40;99.90;;;;;;5058579;28;20275;-71
2023/11/11 01:12:22;;;;;;;2.42;2.33;;;5.40;99.90;;;;;;5027349;28;20805;-72
2023/11/11 01:14:50;;;;;;;2.65;2.55;;;5.40;99.90;;;;;;5045087;28;20287;-70
2023/11/11 01:17:18;;;;;;;2.50;2.40;;;5.40;99.90;;;;;;5028082;28;20300;-72
2023/11/11 01:19:46;;;;;;;2.45;2.25;;;5.40;99.90;;;;;;5057905;28;20210;-71
2023/11/11 01:22:16;;;;;;;2.40;2.30;;;5.30;99.90;;;;;;5054340;28;20218;-71
2023/11/11 01:24:43;;;;;;;2.30;2.20;;;5.30;99.90;;;;;;5040257;28;20194;-71
2023/11/11 01:27:12;;;;;;;2.67;2.47;;;5.30;99.90;;;;;;5036570;28;20199;-72
2023/11/11 01:29:42;;;;;;;2.70;2.60;;;5.20;99.90;;;;;;5040980;28;20224;-73
2023/11/11 01:32:09;;;;;;;2.58;2.47;;;5.20;99.90;;;;;;5021498;28;20246;-72
2023/11/11 01:34:36;;;;;;;2.15;2.05;;;5.20;99.90;;;;;;5055968;28;20195;-73
2023/11/11 01:37:05;;;;;;;2.42;2.33;;;5.20;99.90;;;;;;5035614;28;20202;-73
2023/11/11 01:39:32;;;;;;;2.40;2.30;;;5.20;99.90;;;;;;5054529;28;20313;-71
2023/11/11 01:41:59;;;;;;;2.17;2.08;;;5.20;99.90;;;;;;5036138;28;20222;-73
2023/11/11 01:44:28;;;;;;;2.50;2.40;;;5.20;99.90;;;;;;5054780;28;20288;-73
2023/11/11 01:46:55;;;;;;;2.40;2.30;;;5.20;99.90;;;;;;5052565;28;20349;-73
2023/11/11 01:49:23;;;;;;;2.60;2.50;;;5.10;99.90;;;;;;5056810;28;20256;-73
2023/11/11 01:51:52;;;;;;;2.60;2.50;;;5.20;99.90;;;;;;5037619;28;20222;-72
2023/11/11 01:54:21;;;;;;;2.10;2.00;;;5.10;99.90;;;;;;5038561;28;20213;-73
2023/11/11 01:56:48;;;;;;;2.40;2.30;;;5.20;99.90;;;;;;5055633;28;20198;-73
2023/11/11 01:59:17;;;;;;;2.40;2.30;;;5.10;99.90;;;;;;5038317;28;20198;-72
2023/11/11 02:01:46;;;;;;;2.13;2.03;;;5.20;99.90;;;;;;5055460;28;20241;-73
2023/11/11 02:04:15;;;;;;;2.40;2.30;;;5.20;99.90;;;;;;5056572;28;20615;-73
2023/11/11 02:06:42;;;;;;;2.60;2.50;;;5.20;99.90;;;;;;5021844;28;20212;-73
2023/11/11 02:09:10;;;;;;;2.60;2.40;;;5.10;99.90;;;;;;5053933;28;20253;-73
2023/11/11 02:11:38;;;;;;;2.50;2.40;;;5.10;99.90;;;;;;5053801;28;20233;-73
2023/11/11 02:14:05;;;;;;;2.58;2.47;;;5.10;99.90;;;;;;5055194;28;20206;-71
2023/11/11 02:16:34;;;;;;;2.45;2.35;;;5.10;99.90;;;;;;5053855;28;20206;-72
2023/11/11 02:19:03;;;;;;;2.40;2.30;;;5.10;99.90;;;;;;5053857;28;20234;-72
2023/11/11 02:21:31;;;;;;;2.47;2.38;;;5.10;99.90;;;;;;5053657;28;20236;-71
2023/11/11 02:24:01;;;;;;;2.42;2.33;;;5.10;99.90;;;;;;5053389;28;20205;-71
2023/11/11 02:26:28;;;;;;;2.65;2.50;;;5.10;99.90;;;;;;5041663;28;20268;-72
2023/11/11 02:28:55;;;;;;;2.72;2.63;;;5.10;99.90;;;;;;5053202;28;20250;-72
2023/11/11 02:31:23;;;;;;;2.53;2.42;;;5.10;99.90;;;;;;5054999;28;20244;-71
2023/11/11 02:33:50;;;;;;;2.45;2.35;;;5.10;99.90;;;;;;5041478;28;20205;-73
2023/11/11 02:36:18;;;;;;;2.72;2.63;;;5.10;99.90;;;;;;5056459;28;20789;-72
2023/11/11 02:38:45;;;;;;;2.55;2.45;;;5.10;99.90;;;;;;5037414;28;20206;-72
2023/11/11 02:41:14;;;;;;;2.90;2.70;;;5.10;99.90;;;;;;5053663;28;20272;-72
2023/11/11 02:43:41;;;;;;;2.47;2.38;;;5.10;99.90;;;;;;5038282;28;20222;-71
2023/11/11 02:46:08;;;;;;;2.80;2.70;;;5.10;99.90;;;;;;5055984;28;20667;-71
2023/11/11 02:48:35;;;;;;;2.70;2.60;;;5.10;99.90;;;;;;5042021;28;20291;-71
2023/11/11 02:51:02;;;;;;;2.63;2.53;;;5.10;99.90;;;;;;5059017;28;20272;-71
2023/11/11 02:53:29;;;;;;;2.53;2.42;;;5.10;99.90;;;;;;5061364;28;20295;-71
2023/11/11 02:55:56;;;;;;;2.78;2.67;;;5.00;99.90;;;;;;5041779;28;20209;-71
2023/11/11 02:58:25;;;;;;;2.67;2.50;;;5.00;99.90;;;;;;5057467;28;20210;-71
2023/11/11 03:00:53;;;;;;;2.90;2.70;;;5.00;99.90;;;;;;5058668;28;20237;-71
2023/11/11 03:03:21;;;;;;;2.58;2.47;;;5.00;99.90;;;;;;5061210;28;20221;-71
2023/11/11 03:05:49;;;;;;;2.60;2.50;;;5.00;99.90;;;;;;5044472;28;20206;-71
2023/11/11 03:08:16;;;;;;;2.53;2.42;;;5.00;99.90;;;;;;5062558;28;20222;-73
2023/11/11 03:10:44;;;;;;;2.50;2.40;;;5.00;99.90;;;;;;5060999;28;20731;-72
2023/11/11 03:13:11;;;;;;;2.55;2.45;;;4.90;99.90;;;;;;5061777;28;20686;-72
2023/11/11 03:15:39;;;;;;;2.72;2.63;;;4.90;99.90;;;;;;5064463;28;20218;-71
2023/11/11 03:18:07;;;;;;;2.63;2.53;;;4.90;99.90;;;;;;5060034;28;20202;-72
2023/11/11 03:20:35;;;;;;;2.42;2.33;;;4.90;99.90;;;;;;5063249;28;20229;-71
2023/11/11 03:23:03;;;;;;;2.70;2.60;;;4.90;99.90;;;;;;5044716;28;20727;-72
2023/11/11 03:25:30;;;;;;;2.80;2.70;;;4.90;99.90;;;;;;5042555;28;20205;-71
2023/11/11 03:27:58;;;;;;;2.78;2.67;;;4.90;99.90;;;;;;5061420;28;20241;-71
2023/11/11 03:30:25;;;;;;;2.72;2.60;;;4.90;99.90;;;;;;5042303;28;20249;-71
2023/11/11 03:32:53;;;;;;;2.72;2.63;;;4.80;99.90;;;;;;5062951;28;20209;-72
2023/11/11 03:35:21;;;;;;;2.92;2.83;;;4.80;99.90;;;;;;5045303;28;20289;-72
2023/11/11 03:37:48;;;;;;;3.05;2.85;;;4.80;99.90;;;;;;5060625;28;20202;-72
2023/11/11 03:40:15;;;;;;;3.42;3.22;;;4.80;99.90;;;;;;5058497;28;20280;-72
2023/11/11 03:42:43;;;;;;;2.88;2.78;;;4.70;99.90;;;;;;5045858;28;20306;-72
2023/11/11 03:45:10;;;;;;;3.05;2.90;;;4.80;99.90;;;;;;5061684;28;20238;-71
2023/11/11 03:47:39;;;;;;;3.03;2.88;;;4.80;99.90;;;;;;5059568;28;20738;-72
2023/11/11 03:50:10;;;;;;;3.40;3.20;;;4.70;99.90;;;;;;5026390;28;20329;-72
2023/11/11 03:52:37;;;;;;;3.00;2.80;;;4.70;99.90;;;;;;5060898;28;20205;-72
2023/11/11 03:55:05;;;;;;;3.60;3.40;;;4.70;99.90;;;;;;5058761;28;21451;-72
2023/11/11 03:57:33;;;;;;;3.10;2.90;;;4.70;99.90;;;;;;5062502;28;20206;-71
2023/11/11 04:00:00;;;;;;;2.92;2.80;;;4.60;99.90;;;;;;5028305;28;20210;-71
2023/11/11 04:02:27;;;;;;;3.05;2.85;;;4.60;99.90;;;;;;5042956;28;20291;-72
2023/11/11 04:04:55;;;;;;;2.67;2.58;;;4.60;99.90;;;;;;5061418;28;20256;-72
2023/11/11 04:07:24;;;;;;;3.22;3.03;;;4.60;99.90;;;;;;5059608;28;20202;-72
2023/11/11 04:09:51;;;;;;;2.63;2.53;;;4.70;99.90;;;;;;5040817;28;20667;-71
2023/11/11 04:12:18;;;;;;;2.90;2.80;;;4.60;99.90;;;;;;5055313;28;20218;-72
2023/11/11 04:14:45;;;;;;;2.78;2.67;;;4.60;99.90;;;;;;5059665;28;20639;-71
2023/11/11 04:17:12;;;;;;;2.85;2.75;;;4.60;99.90;;;;;;5056733;28;20205;-72
2023/11/11 04:19:40;;;;;;;2.88;2.78;;;4.60;99.90;;;;;;5056072;28;20198;-71
2023/11/11 04:22:07;;;;;;;2.65;2.55;;;4.50;99.90;;;;;;5055482;28;20223;-71
2023/11/11 04:24:36;;;;;;;3.28;3.08;;;4.50;99.90;;;;;;5056272;28;20202;-71
2023/11/11 04:27:03;;;;;;;3.20;3.00;;;4.50;99.90;;;;;;5057853;28;20198;-72
2023/11/11 04:29:31;;;;;;;3.17;3.00;;;4.50;99.90;;;;;;5057074;28;20222;-71
2023/11/11 04:31:58;;;;;;;2.97;2.88;;;4.40;99.90;;;;;;5037150;28;20318;-71
2023/11/11 04:34:26;;;;;;;3.03;2.90;;;4.40;99.90;;;;;;5040442;28;20199;-71
2023/11/11 04:36:53;;;;;;;3.40;3.20;;;4.40;99.90;;;;;;5057039;28;20210;-71
2023/11/11 04:39:21;;;;;;;3.40;3.05;;;4.40;99.90;;;;;;5037354;28;20208;-71
2023/11/11 04:41:50;;;;;;;3.20;3.00;;;4.40;99.90;;;;;;5038207;28;20226;-71
2023/11/11 04:44:17;;;;;;;3.47;3.28;;;4.40;99.90;;;;;;5058257;28;20210;-71
2023/11/11 04:46:45;;;;;;;3.15;2.95;;;4.40;99.90;;;;;;5056872;28;20293;-71
2023/11/11 04:49:13;;;;;;;2.83;2.72;;;4.40;99.90;;;;;;5040040;28;20564;-71
2023/11/11 04:51:40;;;;;;;3.20;3.00;;;4.40;99.90;;;;;;5055227;28;20224;-71
2023/11/11 04:54:08;;;;;;;3.10;2.90;;;4.30;99.90;;;;;;5059129;28;20283;-72
2023/11/11 04:56:35;;;;;;;3.33;3.15;;;4.30;99.90;;;;;;5037554;28;20202;-71
2023/11/11 04:59:04;;;;;;;2.97;2.85;;;4.30;99.90;;;;;;5054477;28;20194;-72
2023/11/11 05:01:31;;;;;;;3.15;2.95;;;4.30;99.90;;;;;;5053104;28;20224;-72
2023/11/11 05:03:58;;;;;;;3.20;3.00;;;4.30;99.90;;;;;;5057673;28;20264;-70
2023/11/11 05:06:27;;;;;;;3.47;3.28;;;4.20;99.90;;;;;;5058860;28;20198;-71
2023/11/11 05:08:55;;;;;;;3.25;3.13;;;4.30;99.90;;;;;;5057746;28;20226;-72
2023/11/11 05:11:25;;;;;;;2.90;2.80;;;4.30;99.90;;;;;;5058036;28;20916;-71
2023/11/11 05:13:53;;;;;;;3.25;3.05;;;4.30;99.90;;;;;;5029391;28;20194;-71
2023/11/11 05:16:38;;;;;;;2.80;2.70;;;4.20;99.90;;;;;;5041484;28;20193;-70
2023/11/11 05:19:05;;;;;;;3.10;2.90;;;4.30;99.90;;;;;;5056397;28;20258;-71
2023/11/11 05:21:32;;;;;;;3.38;3.17;;;4.20;99.90;;;;;;5061985;28;20223;-72
2023/11/11 05:23:59;;;;;;;3.58;3.38;;;4.20;99.90;;;;;;5057427;28;20627;-72
2023/11/11 05:26:27;;;;;;;3.33;3.15;;;4.20;99.90;;;;;;5057956;28;20194;-71
2023/11/11 05:28:55;;;;;;;3.08;2.97;;;4.20;99.90;;;;;;5039866;28;20250;-71
2023/11/11 05:31:25;;;;;;;3.22;3.10;;;4.20;99.90;;;;;;5055449;28;20225;-71
2023/11/11 05:33:52;;;;;;;3.10;3.00;;;4.30;99.90;;;;;;5061966;28;20267;-71
2023/11/11 05:36:20;;;;;;;3.42;3.22;;;4.20;99.90;;;;;;5055923;28;20203;-71
2023/11/11 05:38:48;;;;;;;2.92;2.72;;;4.30;99.90;;;;;;5059756;28;20203;-72
2023/11/11 05:41:15;;;;;;;2.92;2.78;;;4.30;99.90;;;;;;5061849;28;20225;-71
2023/11/11 05:43:42;;;;;;;2.90;2.80;;;4.30;99.90;;;;;;5061188;28;20198;-71
2023/11/11 05:46:09;;;;;;;3.30;3.10;;;4.30;99.90;;;;;;5059935;28;20202;-71
2023/11/11 05:48:40;;;;;;;2.92;2.83;;;4.30;99.90;;;;;;5054547;28;20831;-72
2023/11/11 05:51:08;;;;;;;3.10;2.90;;;4.30;99.90;;;;;;5058694;28;20683;-72
2023/11/11 05:53:35;;;;;;;3.08;2.88;;;4.20;99.90;;;;;;5060922;28;21187;-72
2023/11/11 05:56:04;;;;;;;3.13;2.92;;;4.20;99.90;;;;;;5058438;28;20230;-73
2023/11/11 05:58:31;;;;;;;2.90;2.70;;;4.30;99.90;;;;;;5058612;28;20268;-70
2023/11/11 06:00:59;;;;;;;3.00;2.80;;;4.30;99.90;;;;;;5059174;28;20214;-70
2023/11/11 06:03:26;;;;;;;3.20;3.00;;;4.20;99.90;;;;;;5039365;28;20285;-71
2023/11/11 06:05:54;;;;;;;3.25;3.05;;;4.20;99.90;;;;;;5038100;28;20198;-72
2023/11/11 06:08:22;;;;;;;3.10;2.90;;;4.20;99.90;;;;;;5057381;28;20276;-72
2023/11/11 06:10:50;;;;;;;3.20;3.00;;;4.10;99.90;;;;;;5037830;28;20219;-71
2023/11/11 06:13:17;;;;;;;3.78;3.35;;;4.10;99.90;;;;;;5055372;28;20203;-71
2023/11/11 06:15:45;;;;;;;3.40;3.20;;;4.10;99.90;;;;;;5058291;28;20233;-72
2023/11/11 06:18:13;;;;;;;3.30;3.10;;;4.10;99.90;;;;;;5058348;28;20214;-71
2023/11/11 06:20:40;;;;;;;3.60;3.30;;;4.10;99.90;;;;;;5043941;28;20321;-71
2023/11/11 06:23:09;;;;;;;3.40;3.20;;;4.20;99.90;;;;;;5063326;28;20206;-71
2023/11/11 06:25:36;;;;;;;3.53;3.33;;;4.20;99.90;;;;;;5062577;28;20759;-71
2023/11/11 06:28:03;;;;;;;3.40;3.20;;;4.20;99.90;;;;;;5063447;28;20594;-72
2023/11/11 06:30:31;;;;;;;3.72;3.53;;;4.20;99.90;;;;;;5042957;28;20490;-71
2023/11/11 06:32:58;;;;;;;3.13;2.92;;;4.20;99.90;;;;;;5062795;28;20233;-70
2023/11/11 06:35:26;;;;;;;3.75;3.55;;;4.20;99.90;;;;;;5061481;28;20301;-70
2023/11/11 06:37:55;;;;;;;4.00;3.80;;;4.30;99.90;;;;;;5063324;28;20206;-71
2023/11/11 06:40:25;;;;;;;3.90;3.70;;;4.20;99.90;;;;;;5042818;28;20201;-71
2023/11/11 06:42:54;;;;;;;3.90;3.60;;;4.20;99.90;;;;;;5063903;28;20202;-71
2023/11/11 06:45:21;;;;;;;3.67;3.47;;;4.20;99.90;;;;;;5063498;28;20563;-73
2023/11/11 06:47:49;;;;;;;3.55;3.35;;;4.30;99.90;;;;;;5062433;28;20210;-71
2023/11/11 06:50:18;;;;;;;4.25;3.95;;;4.30;99.90;;;;;;5063231;28;20225;-70
2023/11/11 06:52:45;;;;;;;3.88;3.60;;;4.20;99.90;;;;;;5062190;28;20198;-72
2023/11/11 06:55:12;;;;;;;4.50;4.10;;;4.20;99.90;;;;;;5064312;28;20714;-71
2023/11/11 06:57:41;;;;;;;4.68;4.38;;;4.10;99.90;;;;;;5063796;28;20251;-72
2023/11/11 07:00:15;;;;;;;4.47;4.18;;;4.10;99.90;;;;;;5064584;28;20194;-71
2023/11/11 07:02:43;;;;;;;4.28;3.97;;;4.10;99.90;;;;;;5047649;28;20198;-72
2023/11/11 07:05:11;;;;;;;5.78;5.30;;;4.10;99.90;;;;;;5062524;28;20289;-72
2023/11/11 07:07:40;;;;;;;5.32;4.82;;;4.10;99.90;;;;;;5065390;28;20212;-72
2023/11/11 07:10:09;;;;;;;5.05;4.65;;;4.10;99.90;;;;;;5029833;28;20268;-72
2023/11/11 07:12:36;;;;;;;4.70;4.40;;;4.10;99.90;;;;;;5063635;28;20202;-72
2023/11/11 07:15:06;;;;;;;4.18;3.88;;;4.10;99.90;;;;;;5064307;28;20247;-72
2023/11/11 07:17:33;;;;;;;4.90;4.57;;;4.00;99.90;;;;;;5044776;28;20724;-72
2023/11/11 07:20:00;;;;;;;3.88;3.67;;;4.00;99.90;;;;;;5062009;28;20256;-72
2023/11/11 07:22:27;;;;;;;4.50;4.20;;;4.00;99.90;;;;;;5062876;28;20223;-73
2023/11/11 07:24:54;;;;;;;3.92;3.63;;;4.10;99.90;;;;;;5047512;28;20202;-71
2023/11/11 07:27:21;;;;;;;3.83;3.63;;;4.50;99.90;;;;;;5044452;28;20281;-72
2023/11/11 07:29:48;;;;;;;3.65;3.45;;;5.30;99.90;;;;;;5063996;28;20225;-74
2023/11/11 07:32:17;;;;;;;4.15;3.80;;;6.10;99.90;;;;;;5063320;28;20719;-75
2023/11/11 07:34:44;;;;;;;3.78;3.47;;;7.00;99.90;;;;;;5063758;28;20745;-72
2023/11/11 07:37:12;;;;;;;3.65;3.45;;;7.80;99.90;;;;;;5063075;28;20244;-72
2023/11/11 07:39:40;;;;;;;3.45;3.20;;;8.60;99.90;;;;;;5046065;28;20751;-73
2023/11/11 07:42:08;;;;;;;4.75;3.70;;;9.40;99.90;;;;;;5066586;28;20222;-72
2023/11/11 07:44:35;;;;;;;3.45;3.15;;;9.90;99.90;;;;;;5045500;28;20293;-72
2023/11/11 07:47:06;;;;;;;3.80;3.50;;;10.30;99.90;;;;;;5061486;28;20202;-72
2023/11/11 07:49:35;;;;;;;3.30;3.00;;;10.70;99.90;;;;;;5061813;28;20218;-72
2023/11/11 07:52:02;;;;;;;3.67;3.45;;;11.10;99.90;;;;;;5062824;28;20267;-72
2023/11/11 07:54:31;;;;;;;2.95;2.75;;;11.40;99.90;;;;;;5028322;28;20220;-72
2023/11/11 07:56:58;;;;;;;3.00;2.80;;;11.60;99.90;;;;;;5060368;28;20738;-72
2023/11/11 07:59:25;;;;;;;3.00;2.80;;;11.90;99.90;;;;;;5063149;28;20248;-73
2023/11/11 08:01:53;;;;;;;4.28;2.25;;;12.40;99.90;;;;;;5045790;28;20801;-73
2023/11/11 08:04:20;;;;;;;2.67;2.50;;;12.20;99.90;;;;;;5059210;28;20207;-73
2023/11/11 08:06:48;;;;;;;2.40;2.20;;;12.00;99.90;;;;;;5061918;28;20203;-73
2023/11/11 08:09:16;;;;;;;2.35;2.15;;;11.90;99.90;;;;;;5062045;28;20255;-74
2023/11/11 08:11:44;;;;;;;2.72;2.53;;;12.00;99.90;;;;;;5060749;28;20230;-73
2023/11/11 08:14:12;;;;;;;2.22;1.92;;;12.10;99.90;;;;;;5046657;28;20198;-73
2023/11/11 08:16:40;;;;;;;2.40;2.30;;;11.90;99.90;;;;;;5062754;28;20206;-73
2023/11/11 08:19:07;;;;;;;2.63;2.42;;;11.70;99.90;;;;;;5062413;28;20198;-73
2023/11/11 08:21:35;;;;;;;3.10;2.90;;;11.50;99.90;;;;;;5044486;28;20297;-73
2023/11/11 08:24:05;;;;;;;2.55;2.35;;;11.30;99.90;;;;;;5064005;28;20623;-73
2023/11/11 08:26:32;;;;;;;2.78;2.58;;;11.20;99.90;;;;;;5046703;28;20304;-73
2023/11/11 08:28:59;;;;;;;3.00;2.45;;;11.20;99.90;;;;;;5044316;28;20723;-72
2023/11/11 08:31:27;;;;;;;2.92;2.40;;;11.30;99.90;;;;;;5063701;28;20218;-73
2023/11/11 08:33:54;;;;;;;3.22;2.45;;;11.60;99.90;;;;;;5063287;28;20208;-72
2023/11/11 08:36:21;;;;;;;2.35;2.20;;;12.10;99.90;;;;;;5057698;28;20198;-71
2023/11/11 08:38:48;;;;;;;2.83;2.60;;;12.20;99.90;;;;;;5059187;28;20659;-71
2023/11/11 08:41:17;;;;;;;2.58;2.40;;;12.40;99.90;;;;;;5039443;28;20754;-71
2023/11/11 08:43:44;;;;;;;2.63;2.42;;;12.80;99.90;;;;;;5058526;28;20202;-71
2023/11/11 08:46:11;;;;;;;2.50;2.30;;;13.10;99.90;;;;;;5058263;28;20194;-72
2023/11/11 08:48:40;;;;;;;3.30;2.83;;;13.10;99.90;;;;;;5038691;28;20206;-72
2023/11/11 08:51:08;;;;;;;2.72;2.53;;;12.90;99.90;;;;;;5055800;28;20217;-72
2023/11/11 08:53:35;;;;;;;4.10;2.65;;;13.00;99.90;;;;;;5041342;28;20203;-73
2023/11/11 08:56:02;;;;;;;3.00;2.70;;;13.20;99.90;;;;;;5057423;28;20206;-72
2023/11/11 08:58:32;;;;;;;2.05;1.95;;;13.40;99.90;;;;;;5057988;28;20202;-73
2023/11/11 09:01:00;;;;;;;2.30;2.20;;;13.70;99.90;;;;;;5058200;28;20280;-73
2023/11/11 09:03:28;;;;;;;3.58;2.10;;;14.00;99.90;;;;;;5040305;28;20294;-73
2023/11/11 09:05:55;;;;;;;2.97;2.03;;;14.50;99.90;;;;;;5058572;28;20781;-72
2023/11/11 09:08:24;;;;;;;2.00;1.90;;;15.50;99.90;;;;;;5041175;28;20279;-72
2023/11/11 09:10:51;;;;;;;2.72;2.17;;;16.80;99.90;;;;;;5054761;28;20226;-71
2023/11/11 09:13:22;;;;;;;2.10;1.95;;;18.10;99.90;;;;;;5040689;28;20260;-72
2023/11/11 09:15:52;;;;;;;2.03;1.92;;;19.60;99.90;;;;;;5041087;28;20210;-71
2023/11/11 09:18:19;;;;;;;3.35;2.05;;;20.70;99.90;;;;;;5052293;28;20226;-71
2023/11/11 09:20:46;;;;;;;2.65;2.05;;;20.70;99.90;;;;;;5056402;28;21036;-72
2023/11/11 09:23:13;;;;;;;2.90;2.05;;;19.60;99.90;;;;;;5055761;28;20260;-71
2023/11/11 09:25:41;;;;;;;2.30;2.08;;;17.80;99.90;;;;;;5041582;28;20264;-71
2023/11/11 09:28:08;;;;;;;2.10;1.90;;;16.20;99.90;;;;;;5039119;28;20202;-72
2023/11/11 09:30:35;;;;;;;2.00;1.90;;;14.50;99.90;;;;;;5059179;28;20222;-71
2023/11/11 09:33:05;;;;;;;2.35;2.15;;;13.70;99.90;;;;;;5039324;28;20298;-72
2023/11/11 09:35:32;;;;;;;3.47;1.90;;;13.70;99.90;;;;;;5058436;28;20264;-71
2023/11/11 09:37:59;;;;;;;2.15;2.03;;;14.10;99.90;;;;;;5054905;28;20625;-71
2023/11/11 09:40:27;;;;;;;3.03;2.28;;;14.30;99.90;;;;;;5042153;28;20259;-71
2023/11/11 09:42:54;;;;;;;2.03;1.92;;;14.30;99.90;;;;;;5059384;28;20202;-72
2023/11/11 09:45:23;;;;;;;2.35;2.15;;;14.60;99.90;;;;;;5036482;28;20236;-72
2023/11/11 09:47:53;;;;;;;1.95;1.85;;;14.60;99.90;;;;;;5040129;28;20239;-72
2023/11/11 09:50:25;;;;;;;2.22;2.00;;;14.60;99.90;;;;;;5055936;28;20210;-71
2023/11/11 09:52:54;;;;;;;1.95;1.85;;;14.40;99.90;;;;;;5059987;28;20293;-72
2023/11/11 09:55:23;;;;;;;2.15;2.00;;;14.30;99.90;;;;;;5040948;28;20873;-71
2023/11/11 09:57:50;;;;;;;2.13;2.03;;;14.80;99.90;;;;;;5058439;28;20289;-71
2023/11/11 10:00:18;;;;;;;2.20;2.00;;;15.20;99.90;;;;;;5056739;28;20205;-72
2023/11/11 10:02:45;;;;;;;2.00;1.90;;;15.60;99.90;;;;;;5053313;28;20209;-72
2023/11/11 10:05:13;;;;;;;2.05;1.95;;;15.90;99.90;;;;;;5037829;28;20289;-72
2023/11/11 10:07:42;;;;;;;2.58;2.38;;;15.90;99.90;;;;;;5058010;28;20198;-71
2023/11/11 10:10:10;;;;;;;2.08;1.92;;;16.00;99.90;;;;;;5056150;28;20254;-71
2023/11/11 10:12:39;;;;;;;2.53;2.33;;;16.00;99.90;;;;;;5057835;28;20210;-72
2023/11/11 10:15:08;;;;;;;3.65;2.33;;;16.00;99.90;;;;;;5055984;28;20238;-72
2023/11/11 10:17:38;;;;;;;2.50;2.30;;;15.80;99.90;;;;;;5040060;28;20723;-71
2023/11/11 10:20:10;;;;;;;2.60;2.30;;;15.50;99.90;;;;;;5058781;28;20202;-71
2023/11/11 10:22:45;;;;;;;2.30;2.08;;;15.40;99.90;;;;;;5041462;28;20199;-72
2023/11/11 10:25:14;;;;;;;2.70;2.10;;;15.20;99.90;;;;;;5054858;28;20297;-71
2023/11/11 10:27:47;;;;;;;2.25;2.05;;;15.20;99.90;;;;;;5057645;28;20294;-72
2023/11/11 10:30:19;;;;;;;2.42;2.22;;;15.00;99.90;;;;;;5057547;28;20708;-72
2023/11/11 10:32:48;;;;;;;5.05;1.95;;;14.70;99.90;;;;;;5054520;28;20689;-72
2023/11/11 10:35:18;;;;;;;1.90;1.80;;;14.80;99.90;;;;;;5057987;28;20297;-72
2023/11/11 10:37:48;;;;;;;1.95;1.70;;;15.00;99.90;;;;;;5058071;28;20202;-72
2023/11/11 10:40:16;;;;;;;2.13;1.80;;;15.00;99.90;;;;;;5053444;28;20260;-72
2023/11/11 10:42:45;;;;;;;1.80;1.70;;;15.10;99.90;;;;;;5056494;28;20213;-72
2023/11/11 10:45:15;;;;;;;1.50;1.40;;;15.50;99.90;;;;;;5053271;28;20213;-72
2023/11/11 10:47:43;;;;;;;2.72;1.77;;;15.70;99.90;;;;;;5056762;28;20842;-71
2023/11/11 10:50:11;;;;;;;1.60;1.50;;;15.70;99.90;;;;;;5055295;28;20202;-72
2023/11/11 10:52:40;;;;;;;1.67;1.50;;;15.50;99.90;;;;;;5053483;28;20202;-72
2023/11/11 10:55:10;;;;;;;1.80;1.70;;;15.40;99.90;;;;;;5037072;28;20209;-72
2023/11/11 10:57:40;;;;;;;2.00;1.65;;;15.30;99.90;;;;;;5055138;28;20198;-72
2023/11/11 11:00:16;;;;;;;1.60;1.50;;;15.50;99.90;;;;;;5053786;28;20213;-72
2023/11/11 11:02:46;;;;;;;1.83;1.67;;;15.30;99.90;;;;;;5037478;28;20825;-73
2023/11/11 11:05:17;;;;;;;1.85;1.75;;;15.40;99.90;;;;;;5057055;28;20206;-72
2023/11/11 11:07:49;;;;;;;2.17;1.73;;;15.60;99.90;;;;;;5036273;28;20790;-71
2023/11/11 11:10:24;;;;;;;2.65;1.77;;;15.60;99.90;;;;;;5039844;28;20211;-72
2023/11/11 11:12:57;;;;;;;1.70;1.60;;;15.70;99.90;;;;;;5039980;28;20206;-72
2023/11/11 11:15:26;;;;;;;1.60;1.50;;;15.60;99.90;;;;;;5058666;28;20201;-75
2023/11/11 11:17:54;;;;;;;1.77;1.67;;;15.60;99.90;;;;;;5040699;28;20686;-72
2023/11/11 11:20:24;;;;;;;2.10;1.90;;;15.60;99.90;;;;;;5059916;28;20198;-72
2023/11/11 11:22:59;;;;;;;1.80;1.70;;;15.40;99.90;;;;;;5059164;28;20677;-72
2023/11/11 11:25:37;;;;;;;1.98;1.88;;;14.90;99.90;;;;;;5043563;28;20194;-71
2023/11/11 11:28:18;;;;;;;2.30;2.10;;;14.80;99.90;;;;;;5057182;28;20256;-72
2023/11/11 11:30:47;;;;;;;2.85;1.80;;;14.60;99.90;;;;;;5058860;28;20582;-72
2023/11/11 11:33:17;;;;;;;2.30;1.95;;;14.50;99.90;;;;;;5058248;28;20202;-72
2023/11/11 11:35:45;;;;;;;2.33;2.00;;;14.80;99.90;;;;;;5061559;28;20778;-72
2023/11/11 11:38:12;;;;;;;2.38;2.17;;;14.60;99.90;;;;;;5022235;28;20290;-72
2023/11/11 11:40:43;;;;;;;1.73;1.63;;;14.70;99.90;;;;;;5059436;28;20229;-72
2023/11/11 11:43:11;;;;;;;1.98;1.88;;;14.70;99.90;;;;;;5039198;28;20203;-71
2023/11/11 11:45:39;;;;;;;2.80;2.22;;;14.80;99.90;;;;;;5058327;28;20257;-71
2023/11/11 11:48:07;;;;;;;2.00;1.90;;;14.70;99.90;;;;;;5060550;28;20237;-72
2023/11/11 11:50:35;;;;;;;2.17;1.70;;;14.40;99.90;;;;;;5058160;28;20236;-71
2023/11/11 11:53:03;;;;;;;1.70;1.60;;;14.10;99.90;;;;;;5056486;28;20248;-71
2023/11/11 11:55:38;;;;;;;1.95;1.85;;;14.00;99.90;;;;;;5058198;28;20205;-72
2023/11/11 11:58:07;;;;;;;1.73;1.60;;;13.90;99.90;;;;;;5056970;28;20285;-72
2023/11/11 12:00:39;;;;;;;2.42;2.15;;;13.90;99.90;;;;;;5057160;28;20969;-71
2023/11/11 12:03:08;;;;;;;2.35;2.15;;;13.90;99.90;;;;;;5061656;28;20260;-72
2023/11/11 12:05:35;;;;;;;1.90;1.80;;;14.00;99.90;;;;;;5043612;28;20198;-74
2023/11/11 12:08:02;;;;;;;1.98;1.80;;;13.90;99.90;;;;;;5041649;28;20289;-72
2023/11/11 12:10:43;;;;;;;1.90;1.80;;;13.80;99.90;;;;;;5027557;28;20503;-72
2023/11/11 12:13:12;;;;;;;2.38;2.17;;;13.90;99.90;;;;;;5060905;28;20198;-72
2023/11/11 12:15:39;;;;;;;2.33;2.13;;;13.90;99.90;;;;;;5054324;28;20203;-72
2023/11/11 12:18:11;;;;;;;3.35;2.03;;;14.20;99.90;;;;;;5057353;28;20293;-72
2023/11/11 12:20:43;;;;;;;3.70;2.05;;;14.20;99.90;;;;;;5061612;28;20313;-72
2023/11/11 12:23:11;;;;;;;2.30;2.05;;;14.20;99.90;;;;;;5055391;28;20836;-72
2023/11/11 12:25:39;;;;;;;2.10;2.00;;;14.10;99.90;;;;;;5040147;28;20838;-72
2023/11/11 12:28:06;;;;;;;2.15;1.95;;;14.30;99.90;;;;;;5022062;28;20198;-72
2023/11/11 12:30:35;;;;;;;2.10;2.00;;;14.30;99.90;;;;;;5036647;28;20251;-72
2023/11/11 12:33:04;;;;;;;1.70;1.60;;;14.30;99.90;;;;;;5057121;28;20206;-72
2023/11/11 12:35:32;;;;;;;2.75;1.90;;;14.30;99.90;;;;;;5056744;28;20289;-71
2023/11/11 12:37:59;;;;;;;2.50;2.28;;;14.30;99.90;;;;;;5056190;28;20210;-72
2023/11/11 12:40:33;;;;;;;1.80;1.70;;;14.20;99.90;;;;;;5041995;28;20317;-72
2023/11/11 12:43:02;;;;;;;1.83;1.73;;;14.10;99.90;;;;;;5058009;28;20355;-72
2023/11/11 12:45:31;;;;;;;2.72;1.85;;;14.10;99.90;;;;;;5057211;28;20198;-72
2023/11/11 12:48:00;;;;;;;2.00;1.80;;;14.30;99.90;;;;;;5041035;28;20562;-71
2023/11/11 12:50:33;;;;;;;1.70;1.60;;;14.50;99.90;;;;;;5039961;28;20281;-72
2023/11/11 12:53:07;;;;;;;1.60;1.50;;;14.70;99.90;;;;;;5056335;28;20307;-71
2023/11/11 12:55:34;;;;;;;2.13;2.00;;;14.80;99.90;;;;;;5057974;28;20210;-72
2023/11/11 12:58:20;;;;;;;2.10;1.90;;;14.90;99.90;;;;;;5056606;28;20289;-72